createdAt,value
2022-11-29T00:00:07.031Z,101341.81
2022-11-29T00:01:12.204Z,101336.00
2022-11-29T00:02:15.554Z,101328.84
2022-11-29T00:03:17.940Z,101337.00
2022-11-29T00:04:21.377Z,101338.22
2022-11-29T00:05:23.591Z,101330.97
2022-11-29T00:06:29.256Z,101338.28
2022-11-29T00:07:32.490Z,101342.16
2022-11-29T00:08:35.084Z,101332.25
2022-11-29T00:09:38.324Z,101330.84
2022-11-29T00:10:41.941Z,101326.06
2022-11-29T00:12:02.814Z,101330.97
2022-11-29T00:13:06.152Z,101332.41
2022-11-29T00:14:10.433Z,101332.72
2022-11-29T00:15:13.895Z,101332.78
2022-11-29T00:16:16.113Z,101330.78
2022-11-29T00:17:19.420Z,101329.84
2022-11-29T00:18:21.948Z,101323.72
2022-11-29T00:19:25.174Z,101326.19
2022-11-29T00:20:27.437Z,101323.47
2022-11-29T00:21:30.969Z,101322.28
2022-11-29T00:22:34.183Z,101321.59
2022-11-29T00:23:36.901Z,101325.28
2022-11-29T00:24:40.079Z,101321.25
2022-11-29T00:25:43.700Z,101324.28
2022-11-29T00:26:46.888Z,101322.50
2022-11-29T00:27:49.012Z,101321.75
2022-11-29T00:28:52.497Z,101317.88
2022-11-29T00:29:54.781Z,101316.47
2022-11-29T00:30:58.184Z,101314.03
2022-11-29T00:32:00.556Z,101322.28
2022-11-29T00:33:04.691Z,101321.91
2022-11-29T00:34:07.204Z,101316.59
2022-11-29T00:35:10.618Z,101321.75
2022-11-29T00:36:13.370Z,101323.06
2022-11-29T00:37:16.698Z,101321.22
2022-11-29T00:38:18.975Z,101319.69
2022-11-29T00:39:22.362Z,101327.38
2022-11-29T00:40:24.718Z,101320.63
2022-11-29T00:41:29.486Z,101323.63
2022-11-29T00:42:32.222Z,101318.09
2022-11-29T00:43:35.806Z,101326.22
2022-11-29T00:44:39.029Z,101323.44
2022-11-29T00:45:41.385Z,101321.59
2022-11-29T00:46:44.748Z,101322.75
2022-11-29T00:47:47.059Z,101319.03
2022-11-29T00:48:50.516Z,101320.25
2022-11-29T00:49:52.715Z,101313.59
2022-11-29T00:50:56.128Z,101312.06
2022-11-29T00:51:58.377Z,101310.34
2022-11-29T00:53:01.589Z,101313.78
2022-11-29T00:54:04.007Z,101322.13
2022-11-29T00:55:08.243Z,101314.09
2022-11-29T00:56:11.853Z,101317.78
2022-11-29T00:57:16.489Z,101316.88
2022-11-29T00:58:19.301Z,101310.03
2022-11-29T00:59:22.686Z,101315.81
2022-11-29T01:00:25.068Z,101307.41
2022-11-29T01:01:28.262Z,101312.06
2022-11-29T01:02:30.542Z,101311.88
2022-11-29T01:03:34.213Z,101314.97
2022-11-29T01:04:36.490Z,101317.06
2022-11-29T01:05:40.550Z,101316.31
2022-11-29T01:06:42.648Z,101318.41
2022-11-29T01:07:45.930Z,101311.56
2022-11-29T01:08:48.349Z,101315.75
2022-11-29T01:09:51.547Z,101317.94
2022-11-29T01:11:02.225Z,101317.53
2022-11-29T01:12:06.067Z,101322.09
2022-11-29T01:13:10.932Z,101315.97
2022-11-29T01:14:14.586Z,101331.00
2022-11-29T01:15:16.965Z,101322.28
2022-11-29T01:16:20.661Z,101328.22
2022-11-29T01:17:22.985Z,101329.34
2022-11-29T01:18:26.661Z,101327.53
2022-11-29T01:19:29.991Z,101324.31
2022-11-29T01:20:32.339Z,101325.47
2022-11-29T01:21:35.758Z,101319.81
2022-11-29T01:22:38.769Z,101320.19
2022-11-29T01:23:42.831Z,101320.25
2022-11-29T01:24:45.260Z,101313.25
2022-11-29T01:25:57.499Z,101319.03
2022-11-29T01:26:59.866Z,101322.44
2022-11-29T01:28:03.045Z,101322.56
2022-11-29T01:29:06.714Z,101320.34
2022-11-29T01:30:11.317Z,101316.19
2022-11-29T01:31:16.161Z,101315.81
2022-11-29T01:32:19.465Z,101315.75
2022-11-29T01:33:21.974Z,101312.72
2022-11-29T01:34:25.150Z,101311.50
2022-11-29T01:35:27.344Z,101314.91
2022-11-29T01:36:30.990Z,101313.47
2022-11-29T01:37:33.425Z,101319.00
2022-11-29T01:38:37.992Z,101317.75
2022-11-29T01:39:40.209Z,101314.47
2022-11-29T01:40:43.609Z,101311.66
2022-11-29T01:41:45.781Z,101313.13
2022-11-29T01:42:48.985Z,101309.84
2022-11-29T01:43:55.717Z,101310.38
2022-11-29T01:45:15.201Z,101296.16
2022-11-29T01:46:17.447Z,101306.66
2022-11-29T01:47:20.885Z,101300.44
2022-11-29T01:48:26.048Z,101300.44
2022-11-29T01:49:33.783Z,101315.53
2022-11-29T01:50:37.511Z,101312.00
2022-11-29T01:51:44.144Z,101311.34
2022-11-29T01:52:47.707Z,101314.75
2022-11-29T01:53:51.152Z,101316.13
2022-11-29T01:54:58.406Z,101310.44
2022-11-29T01:56:05.795Z,101308.72
2022-11-29T01:57:09.060Z,101312.94
2022-11-29T01:58:12.881Z,101311.13
2022-11-29T01:59:19.518Z,101314.97
2022-11-29T02:00:24.472Z,101317.00
2022-11-29T02:01:26.736Z,101319.03
2022-11-29T02:02:34.137Z,101320.69
2022-11-29T02:03:36.432Z,101317.19
2022-11-29T02:04:40.721Z,101317.22
2022-11-29T02:05:47.444Z,101315.78
2022-11-29T02:06:50.956Z,101310.72
2022-11-29T02:07:55.236Z,101323.91
2022-11-29T02:08:58.618Z,101321.81
2022-11-29T02:10:01.428Z,101321.31
2022-11-29T02:11:30.419Z,101321.81
2022-11-29T02:12:46.592Z,101317.53
2022-11-29T02:13:57.907Z,101322.16
2022-11-29T02:15:31.535Z,101321.22
2022-11-29T02:16:41.270Z,101322.53
2022-11-29T02:18:00.087Z,101321.75
2022-11-29T02:19:19.859Z,101325.97
2022-11-29T02:20:54.924Z,101327.63
2022-11-29T02:22:04.713Z,101324.47
2022-11-29T02:23:28.990Z,101322.53
2022-11-29T02:24:56.668Z,101319.63
2022-11-29T02:26:10.314Z,101327.78
2022-11-29T02:27:55.931Z,101325.56
2022-11-29T02:29:30.916Z,101330.81
2022-11-29T02:30:56.509Z,101329.06
2022-11-29T02:32:36.144Z,101329.84
2022-11-29T02:34:11.037Z,101330.91
2022-11-29T02:35:24.558Z,101322.50
2022-11-29T02:36:43.146Z,101323.31
2022-11-29T02:38:16.960Z,101319.97
2022-11-29T02:39:44.614Z,101318.72
2022-11-29T02:41:12.295Z,101323.06
2022-11-29T02:42:56.077Z,101314.69
2022-11-29T02:44:21.733Z,101313.59
2022-11-29T02:45:39.735Z,101313.75
2022-11-29T02:46:55.770Z,101316.53
2022-11-29T02:48:19.287Z,101321.59
2022-11-29T02:49:37.284Z,101321.38
2022-11-29T02:50:45.375Z,101322.47
2022-11-29T02:51:57.154Z,101322.16
2022-11-29T02:53:07.819Z,101324.25
2022-11-29T02:54:17.613Z,101325.44
2022-11-29T02:55:29.672Z,101309.94
2022-11-29T02:56:42.172Z,101312.81
2022-11-29T02:57:55.445Z,101310.03
2022-11-29T02:59:05.009Z,101308.06
2022-11-29T03:00:11.073Z,101308.84
2022-11-29T03:01:19.895Z,101310.34
2022-11-29T03:02:29.902Z,101311.47
2022-11-29T03:03:39.992Z,101307.44
2022-11-29T03:04:49.717Z,101314.59
2022-11-29T03:05:59.327Z,101311.94
2022-11-29T03:07:07.527Z,101311.56
2022-11-29T03:08:19.655Z,101311.16
2022-11-29T03:09:29.827Z,101310.34
2022-11-29T03:10:40.674Z,101311.28
2022-11-29T03:11:48.816Z,101309.31
2022-11-29T03:12:55.136Z,101314.34
2022-11-29T03:14:13.431Z,101306.66
2022-11-29T03:15:29.299Z,101313.97
2022-11-29T03:16:43.696Z,101318.13
2022-11-29T03:18:01.166Z,101316.28
2022-11-29T03:19:15.543Z,101316.03
2022-11-29T03:20:29.827Z,101319.41
2022-11-29T03:21:41.939Z,101322.47
2022-11-29T03:22:51.972Z,101314.03
2022-11-29T03:23:57.672Z,101317.38
2022-11-29T03:25:10.029Z,101318.09
2022-11-29T03:26:16.096Z,101326.50
2022-11-29T03:27:26.215Z,101321.16
2022-11-29T03:28:32.391Z,101321.03
2022-11-29T03:29:42.094Z,101326.50
2022-11-29T03:30:52.980Z,101320.63
2022-11-29T03:32:05.139Z,101319.88
2022-11-29T03:33:13.255Z,101322.03
2022-11-29T03:34:22.904Z,101324.78
2022-11-29T03:35:33.828Z,101318.16
2022-11-29T03:36:46.670Z,101327.88
2022-11-29T03:37:58.155Z,101324.94
2022-11-29T03:39:06.405Z,101321.94
2022-11-29T03:40:10.959Z,101320.50
2022-11-29T03:41:21.192Z,101316.34
2022-11-29T03:42:30.009Z,101318.22
2022-11-29T03:43:42.990Z,101314.94
2022-11-29T03:45:02.640Z,101322.28
2022-11-29T03:46:10.035Z,101315.66
2022-11-29T03:47:15.429Z,101321.19
2022-11-29T03:48:23.584Z,101312.19
2022-11-29T03:49:31.616Z,101314.47
2022-11-29T03:50:40.388Z,101310.72
2022-11-29T03:51:53.296Z,101311.03
2022-11-29T03:53:01.393Z,101317.75
2022-11-29T03:54:09.912Z,101314.78
2022-11-29T03:55:26.355Z,101317.56
2022-11-29T03:56:31.756Z,101312.47
2022-11-29T03:57:46.475Z,101315.28
2022-11-29T03:58:54.719Z,101318.84
2022-11-29T04:00:05.206Z,101325.50
2022-11-29T04:01:39.449Z,101321.09
2022-11-29T04:03:07.854Z,101328.84
2022-11-29T04:04:48.831Z,101328.59
2022-11-29T04:06:24.817Z,101315.63
2022-11-29T04:07:37.253Z,101318.38
2022-11-29T04:09:22.197Z,101320.78
2022-11-29T04:10:47.380Z,101318.38
2022-11-29T04:12:40.133Z,101317.56
2022-11-29T04:14:02.030Z,101321.16
2022-11-29T04:15:51.486Z,101313.91
2022-11-29T04:17:33.728Z,101316.19
2022-11-29T04:18:51.366Z,101316.72
2022-11-29T04:20:24.147Z,101322.00
2022-11-29T04:21:43.294Z,101320.16
2022-11-29T04:23:25.440Z,101319.53
2022-11-29T04:25:01.960Z,101315.44
2022-11-29T04:26:33.554Z,101322.69
2022-11-29T04:27:49.446Z,101317.91
2022-11-29T04:29:15.731Z,101311.63
2022-11-29T04:30:22.074Z,101312.94
2022-11-29T04:31:36.961Z,101321.19
2022-11-29T04:33:21.294Z,101319.19
2022-11-29T04:35:07.806Z,101322.94
2022-11-29T04:36:28.872Z,101315.94
2022-11-29T04:39:24.245Z,101315.72
2022-11-29T04:40:42.790Z,101315.56
2022-11-29T04:42:05.892Z,101313.16
2022-11-29T04:43:21.597Z,101314.47
2022-11-29T04:44:51.808Z,101312.88
2022-11-29T04:46:18.367Z,101307.94
2022-11-29T04:47:48.312Z,101302.00
2022-11-29T04:49:02.253Z,101308.19
2022-11-29T04:50:18.301Z,101306.72
2022-11-29T04:51:32.216Z,101310.56
2022-11-29T04:52:59.242Z,101313.16
2022-11-29T04:54:14.941Z,101311.34
2022-11-29T04:55:31.085Z,101313.47
2022-11-29T04:56:41.509Z,101311.66
2022-11-29T04:57:51.680Z,101312.25
2022-11-29T04:59:03.653Z,101310.94
2022-11-29T05:00:10.155Z,101317.94
2022-11-29T05:01:22.016Z,101316.72
2022-11-29T05:02:33.586Z,101319.31
2022-11-29T05:03:46.626Z,101316.94
2022-11-29T05:04:56.639Z,101316.19
2022-11-29T05:06:09.386Z,101316.34
2022-11-29T05:07:28.149Z,101314.75
2022-11-29T05:08:41.573Z,101324.78
2022-11-29T05:10:00.340Z,101320.78
2022-11-29T05:11:16.230Z,101325.81
2022-11-29T05:12:25.421Z,101334.66
2022-11-29T05:13:34.538Z,101329.63
2022-11-29T05:14:51.929Z,101329.88
2022-11-29T05:16:15.856Z,101335.00
2022-11-29T05:17:32.911Z,101342.34
2022-11-29T05:19:15.236Z,101326.34
2022-11-29T05:20:36.005Z,101330.41
2022-11-29T05:21:47.992Z,101329.63
2022-11-29T05:23:07.157Z,101331.91
2022-11-29T05:24:20.598Z,101333.00
2022-11-29T05:25:37.076Z,101332.41
2022-11-29T05:26:49.420Z,101332.91
2022-11-29T05:27:58.800Z,101329.59
2022-11-29T05:29:06.113Z,101336.78
2022-11-29T05:30:13.531Z,101333.56
2022-11-29T05:31:30.134Z,101334.06
2022-11-29T05:32:39.947Z,101335.38
2022-11-29T05:34:00.570Z,101335.47
2022-11-29T05:35:36.341Z,101338.50
2022-11-29T05:36:43.824Z,101329.94
2022-11-29T05:37:50.700Z,101327.53
2022-11-29T05:39:12.059Z,101326.59
2022-11-29T05:40:45.213Z,101325.66
2022-11-29T05:41:59.593Z,101326.38
2022-11-29T05:43:20.144Z,101331.69
2022-11-29T05:44:28.450Z,101333.81
2022-11-29T05:45:38.368Z,101333.84
2022-11-29T05:46:51.482Z,101337.28
2022-11-29T05:48:01.612Z,101340.84
2022-11-29T05:49:17.998Z,101337.19
2022-11-29T05:50:28.567Z,101335.53
2022-11-29T05:51:41.366Z,101333.88
2022-11-29T05:52:52.149Z,101341.25
2022-11-29T05:54:05.571Z,101339.16
2022-11-29T05:55:23.312Z,101343.22
2022-11-29T05:56:37.482Z,101344.06
2022-11-29T05:57:49.183Z,101336.38
2022-11-29T05:58:56.113Z,101334.94
2022-11-29T06:00:02.455Z,101341.03
2022-11-29T06:01:16.399Z,101341.59
2022-11-29T06:02:34.124Z,101334.59
2022-11-29T06:03:41.589Z,101346.03
2022-11-29T06:04:59.931Z,101340.66
2022-11-29T06:06:08.268Z,101338.19
2022-11-29T06:07:17.506Z,101340.53
2022-11-29T06:08:29.588Z,101341.63
2022-11-29T06:09:41.056Z,101342.06
2022-11-29T06:10:56.808Z,101340.75
2022-11-29T06:12:06.995Z,101336.97
2022-11-29T06:13:22.126Z,101342.22
2022-11-29T06:14:42.904Z,101342.78
2022-11-29T06:16:19.602Z,101345.13
2022-11-29T06:17:42.467Z,101344.59
2022-11-29T06:19:25.648Z,101342.06
2022-11-29T06:20:50.601Z,101347.78
2022-11-29T06:22:02.999Z,101352.59
2022-11-29T06:23:30.849Z,101356.78
2022-11-29T06:24:50.678Z,101357.22
2022-11-29T06:26:07.428Z,101361.16
2022-11-29T06:27:29.341Z,101363.56
2022-11-29T06:28:54.599Z,101358.84
2022-11-29T06:30:04.888Z,101359.84
2022-11-29T06:31:16.790Z,101353.38
2022-11-29T06:32:29.639Z,101355.34
2022-11-29T06:33:41.886Z,101352.22
2022-11-29T06:34:53.124Z,101357.19
2022-11-29T06:36:11.095Z,101354.91
2022-11-29T06:37:21.412Z,101358.69
2022-11-29T06:38:27.498Z,101350.59
2022-11-29T06:39:31.096Z,101353.47
2022-11-29T06:40:33.920Z,101352.00
2022-11-29T06:41:37.711Z,101347.41
2022-11-29T06:42:41.349Z,101355.47
2022-11-29T06:43:45.261Z,101357.63
2022-11-29T06:44:49.152Z,101363.44
2022-11-29T06:45:54.135Z,101373.25
2022-11-29T06:47:04.762Z,101366.84
2022-11-29T06:48:12.178Z,101368.88
2022-11-29T06:49:23.216Z,101362.09
2022-11-29T06:50:37.964Z,101357.69
2022-11-29T06:51:53.587Z,101361.56
2022-11-29T06:53:08.609Z,101357.69
2022-11-29T06:54:26.989Z,101355.47
2022-11-29T06:55:41.158Z,101357.13
2022-11-29T06:56:56.397Z,101364.25
2022-11-29T06:58:11.717Z,101357.84
2022-11-29T06:59:32.981Z,101353.09
2022-11-29T07:00:43.420Z,101348.84
2022-11-29T07:01:51.975Z,101353.34
2022-11-29T07:03:08.125Z,101351.66
2022-11-29T07:04:31.987Z,101354.63
2022-11-29T07:05:36.614Z,101352.50
2022-11-29T07:06:39.404Z,101351.75
2022-11-29T07:07:43.749Z,101361.09
2022-11-29T07:08:48.551Z,101363.63
2022-11-29T07:09:57.012Z,101362.69
2022-11-29T07:11:01.280Z,101365.53
2022-11-29T07:12:04.690Z,101366.69
2022-11-29T07:13:13.418Z,101361.63
2022-11-29T07:14:17.536Z,101366.28
2022-11-29T07:15:23.883Z,101371.19
2022-11-29T07:16:33.092Z,101368.81
2022-11-29T07:17:43.694Z,101371.28
2022-11-29T07:18:59.607Z,101374.50
2022-11-29T07:20:11.748Z,101383.03
2022-11-29T07:21:22.832Z,101387.22
2022-11-29T07:22:46.106Z,101384.22
2022-11-29T07:24:03.937Z,101386.69
2022-11-29T07:25:20.512Z,101385.25
2022-11-29T07:26:35.959Z,101381.47
2022-11-29T07:27:47.516Z,101393.41
2022-11-29T07:29:18.053Z,101391.03
2022-11-29T07:30:21.922Z,101393.38
2022-11-29T07:31:32.728Z,101393.00
2022-11-29T07:32:50.364Z,101398.31
2022-11-29T07:34:06.643Z,101393.03
2022-11-29T07:35:18.179Z,101403.25
2022-11-29T07:36:33.994Z,101400.56
2022-11-29T07:37:45.282Z,101401.28
2022-11-29T07:39:00.537Z,101398.16
2022-11-29T07:40:14.317Z,101406.59
2022-11-29T07:41:25.519Z,101412.47
2022-11-29T07:42:37.557Z,101404.47
2022-11-29T07:43:51.775Z,101402.09
2022-11-29T07:45:06.529Z,101407.03
2022-11-29T07:46:08.702Z,101411.63
2022-11-29T07:47:12.061Z,101407.91
2022-11-29T07:48:17.689Z,101406.34
2022-11-29T07:49:19.823Z,101405.53
2022-11-29T07:50:23.496Z,101402.72
2022-11-29T07:51:27.015Z,101407.72
2022-11-29T07:52:29.419Z,101404.88
2022-11-29T07:53:32.908Z,101402.38
2022-11-29T07:54:36.135Z,101405.53
2022-11-29T07:55:38.540Z,101403.50
2022-11-29T07:56:41.835Z,101406.47
2022-11-29T07:57:44.055Z,101406.59
2022-11-29T07:58:47.601Z,101411.91
2022-11-29T07:59:50.924Z,101407.13
2022-11-29T08:00:55.591Z,101413.53
2022-11-29T08:01:58.936Z,101414.09
2022-11-29T08:03:02.212Z,101418.19
2022-11-29T08:04:04.557Z,101413.19
2022-11-29T08:05:09.016Z,101412.72
2022-11-29T08:06:11.328Z,101416.41
2022-11-29T08:07:14.750Z,101417.34
2022-11-29T08:08:18.011Z,101417.69
2022-11-29T08:09:20.553Z,101419.97
2022-11-29T08:10:24.313Z,101421.09
2022-11-29T08:11:27.051Z,101413.97
2022-11-29T08:12:30.265Z,101414.41
2022-11-29T08:13:32.496Z,101419.28
2022-11-29T08:14:35.754Z,101419.41
2022-11-29T08:15:44.475Z,101422.28
2022-11-29T08:16:49.196Z,101423.06
2022-11-29T08:17:51.669Z,101424.44
2022-11-29T08:18:54.956Z,101425.81
2022-11-29T08:20:02.662Z,101422.81
2022-11-29T08:21:08.360Z,101423.38
2022-11-29T08:22:11.902Z,101419.75
2022-11-29T08:23:16.026Z,101419.84
2022-11-29T08:24:18.258Z,101420.31
2022-11-29T08:25:21.657Z,101414.38
2022-11-29T08:26:31.092Z,101416.97
2022-11-29T08:27:33.847Z,101424.88
2022-11-29T08:28:37.067Z,101419.00
2022-11-29T08:29:39.293Z,101430.44
2022-11-29T08:30:42.537Z,101427.22
2022-11-29T08:31:46.188Z,101429.50
2022-11-29T08:32:51.711Z,101430.88
2022-11-29T08:33:55.199Z,101424.59
2022-11-29T08:34:57.453Z,101426.66
2022-11-29T08:36:06.247Z,101425.41
2022-11-29T08:37:09.553Z,101429.06
2022-11-29T08:38:12.736Z,101427.75
2022-11-29T08:39:14.959Z,101423.59
2022-11-29T08:40:18.616Z,101431.66
2022-11-29T08:41:21.913Z,101421.03
2022-11-29T08:42:24.292Z,101416.69
2022-11-29T08:43:27.499Z,101420.97
2022-11-29T08:44:31.780Z,101424.34
2022-11-29T08:45:34.079Z,101423.22
2022-11-29T08:46:55.040Z,101417.84
2022-11-29T08:47:59.647Z,101423.97
2022-11-29T08:49:02.019Z,101426.22
2022-11-29T08:50:07.452Z,101420.59
2022-11-29T08:51:10.712Z,101428.03
2022-11-29T08:52:31.656Z,101431.38
2022-11-29T08:53:42.920Z,101428.09
2022-11-29T08:54:46.285Z,101428.84
2022-11-29T08:55:50.644Z,101424.97
2022-11-29T08:58:17.310Z,101423.16
2022-11-29T08:59:20.956Z,101429.13
2022-11-29T09:00:23.408Z,101421.59
2022-11-29T09:01:26.871Z,101427.59
2022-11-29T09:02:29.177Z,101428.50
2022-11-29T09:03:52.180Z,101421.59
2022-11-29T09:04:55.401Z,101423.72
2022-11-29T09:05:59.358Z,101426.91
2022-11-29T09:07:02.532Z,101417.59
2022-11-29T09:08:05.108Z,101414.91
2022-11-29T09:09:08.491Z,101417.72
2022-11-29T09:10:11.554Z,101417.72
2022-11-29T09:11:17.641Z,101419.31
2022-11-29T09:12:20.012Z,101418.88
2022-11-29T09:13:23.345Z,101416.38
2022-11-29T09:14:26.847Z,101420.38
2022-11-29T09:15:30.147Z,101419.00
2022-11-29T09:16:37.262Z,101422.06
2022-11-29T09:17:39.686Z,101415.53
2022-11-29T09:18:50.052Z,101419.16
2022-11-29T09:19:54.849Z,101417.22
2022-11-29T09:20:57.049Z,101418.38
2022-11-29T09:22:00.292Z,101417.31
2022-11-29T09:23:02.781Z,101414.81
2022-11-29T09:24:08.197Z,101410.78
2022-11-29T09:25:10.512Z,101412.34
2022-11-29T09:26:19.334Z,101413.09
2022-11-29T09:27:22.720Z,101414.78
2022-11-29T09:28:26.298Z,101412.34
2022-11-29T09:29:29.786Z,101415.84
2022-11-29T09:30:35.225Z,101419.41
2022-11-29T09:31:38.187Z,101416.53
2022-11-29T09:32:41.518Z,101420.84
2022-11-29T09:33:45.967Z,101426.16
2022-11-29T09:34:49.166Z,101417.94
2022-11-29T09:35:52.406Z,101421.91
2022-11-29T09:36:55.631Z,101426.66
2022-11-29T09:37:58.061Z,101432.94
2022-11-29T09:39:03.923Z,101428.72
2022-11-29T09:40:08.726Z,101423.50
2022-11-29T09:41:33.609Z,101423.00
2022-11-29T09:42:48.921Z,101435.19
2022-11-29T09:44:03.884Z,101429.91
2022-11-29T09:45:10.858Z,101426.78
2022-11-29T09:46:19.791Z,101425.19
2022-11-29T09:47:39.916Z,101429.69
2022-11-29T09:49:02.960Z,101423.06
2022-11-29T09:50:22.584Z,101424.91
2022-11-29T09:51:31.581Z,101419.34
2022-11-29T09:52:47.115Z,101421.47
2022-11-29T09:54:04.865Z,101419.06
2022-11-29T09:55:24.042Z,101418.47
2022-11-29T09:56:32.074Z,101412.19
2022-11-29T09:57:34.719Z,101414.59
2022-11-29T09:58:45.515Z,101416.13
2022-11-29T09:59:51.119Z,101417.19
2022-11-29T10:00:58.729Z,101418.47
2022-11-29T10:02:07.496Z,101416.69
2022-11-29T10:03:17.963Z,101418.84
2022-11-29T10:04:28.699Z,101409.59
2022-11-29T10:05:39.613Z,101414.59
2022-11-29T10:06:47.349Z,101407.19
2022-11-29T10:07:55.536Z,101408.28
2022-11-29T10:09:04.639Z,101415.91
2022-11-29T10:10:15.896Z,101415.13
2022-11-29T10:11:23.300Z,101415.66
2022-11-29T10:12:35.144Z,101412.22
2022-11-29T10:13:40.603Z,101414.59
2022-11-29T10:14:47.571Z,101411.69
2022-11-29T10:15:54.359Z,101417.19
2022-11-29T10:17:05.121Z,101416.31
2022-11-29T10:18:18.254Z,101423.72
2022-11-29T10:19:29.300Z,101418.44
2022-11-29T10:20:40.472Z,101420.81
2022-11-29T10:21:59.170Z,101413.75
2022-11-29T10:23:08.113Z,101413.81
2022-11-29T10:24:17.517Z,101415.13
2022-11-29T10:25:26.063Z,101408.94
2022-11-29T10:26:34.771Z,101409.97
2022-11-29T10:27:42.169Z,101410.22
2022-11-29T10:28:48.738Z,101414.72
2022-11-29T10:29:52.675Z,101408.94
2022-11-29T10:30:58.375Z,101412.66
2022-11-29T10:32:10.044Z,101408.94
2022-11-29T10:33:21.616Z,101410.47
2022-11-29T10:34:28.032Z,101401.81
2022-11-29T10:35:37.505Z,101415.97
2022-11-29T10:36:44.441Z,101409.56
2022-11-29T10:38:07.785Z,101411.66
2022-11-29T10:39:17.971Z,101402.38
2022-11-29T10:40:26.952Z,101398.16
2022-11-29T10:41:30.274Z,101397.84
2022-11-29T10:42:53.266Z,101402.91
2022-11-29T10:43:58.762Z,101395.59
2022-11-29T10:45:01.557Z,101400.81
2022-11-29T10:46:05.401Z,101399.03
2022-11-29T10:47:11.122Z,101400.25
2022-11-29T10:48:17.370Z,101398.34
2022-11-29T10:49:25.000Z,101399.19
2022-11-29T10:50:31.644Z,101392.25
2022-11-29T10:51:36.020Z,101387.78
2022-11-29T10:52:39.462Z,101394.94
2022-11-29T10:53:42.573Z,101386.34
2022-11-29T10:54:48.484Z,101394.72
2022-11-29T10:56:00.226Z,101386.41
2022-11-29T10:57:09.902Z,101378.84
2022-11-29T10:58:23.291Z,101386.25
2022-11-29T10:59:33.067Z,101383.34
2022-11-29T11:00:45.393Z,101378.81
2022-11-29T11:01:48.989Z,101382.78
2022-11-29T11:02:51.433Z,101381.56
2022-11-29T11:03:56.726Z,101384.88
2022-11-29T11:04:59.678Z,101377.97
2022-11-29T11:06:12.180Z,101379.03
2022-11-29T11:07:26.158Z,101378.38
2022-11-29T11:08:29.844Z,101373.56
2022-11-29T11:09:36.685Z,101366.97
2022-11-29T11:10:39.515Z,101371.69
2022-11-29T11:11:51.401Z,101374.34
2022-11-29T11:13:03.486Z,101374.19
2022-11-29T11:14:08.362Z,101370.72
2022-11-29T11:15:16.993Z,101366.50
2022-11-29T11:16:21.710Z,101366.78
2022-11-29T11:17:27.337Z,101359.13
2022-11-29T11:18:31.273Z,101357.53
2022-11-29T11:19:36.041Z,101365.47
2022-11-29T11:20:44.558Z,101363.09
2022-11-29T11:21:49.869Z,101355.41
2022-11-29T11:22:59.876Z,101353.31
2022-11-29T11:24:03.680Z,101358.84
2022-11-29T11:25:25.196Z,101358.31
2022-11-29T11:26:29.177Z,101363.06
2022-11-29T11:27:34.735Z,101361.22
2022-11-29T11:28:43.624Z,101356.97
2022-11-29T11:29:47.054Z,101358.84
2022-11-29T11:30:52.125Z,101357.75
2022-11-29T11:31:58.022Z,101350.63
2022-11-29T11:33:19.770Z,101359.63
2022-11-29T11:34:34.311Z,101357.25
2022-11-29T11:35:37.413Z,101361.50
2022-11-29T11:36:40.676Z,101363.34
2022-11-29T11:37:57.666Z,101368.38
2022-11-29T11:39:12.583Z,101355.91
2022-11-29T11:40:26.226Z,101358.56
2022-11-29T11:41:49.740Z,101359.09
2022-11-29T11:42:53.401Z,101358.59
2022-11-29T11:44:00.149Z,101358.56
2022-11-29T11:45:06.137Z,101351.16
2022-11-29T11:46:10.860Z,101357.78
2022-11-29T11:47:19.410Z,101353.81
2022-11-29T11:48:23.810Z,101351.44
2022-11-29T11:49:30.692Z,101355.94
2022-11-29T11:50:38.780Z,101351.97
2022-11-29T11:51:44.256Z,101355.16
2022-11-29T11:52:53.347Z,101355.13
2022-11-29T11:53:58.836Z,101357.50
2022-11-29T11:55:03.507Z,101363.31
2022-11-29T11:56:10.217Z,101363.84
2022-11-29T11:57:17.596Z,101355.94
2022-11-29T11:58:23.961Z,101364.91
2022-11-29T11:59:27.610Z,101355.16
2022-11-29T12:02:27.195Z,101360.81
2022-11-29T12:03:37.198Z,101354.19
2022-11-29T12:04:40.772Z,101363.13
2022-11-29T12:05:46.251Z,101371.25
2022-11-29T12:06:53.579Z,101362.47
2022-11-29T12:08:09.113Z,101361.44
2022-11-29T12:09:33.637Z,101356.03
2022-11-29T12:10:39.901Z,101350.19
2022-11-29T12:11:47.752Z,101358.63
2022-11-29T12:12:52.604Z,101354.16
2022-11-29T12:13:59.234Z,101364.34
2022-11-29T12:15:04.892Z,101360.91
2022-11-29T12:16:14.980Z,101368.63
2022-11-29T12:17:24.220Z,101360.47
2022-11-29T12:18:35.458Z,101370.22
2022-11-29T12:19:48.368Z,101357.38
2022-11-29T12:20:57.351Z,101361.34
2022-11-29T12:22:08.307Z,101363.94
2022-11-29T12:23:25.282Z,101368.13
2022-11-29T12:24:34.133Z,101354.13
2022-11-29T12:25:45.063Z,101356.31
2022-11-29T12:26:56.816Z,101365.72
2022-11-29T12:28:01.647Z,101355.84
2022-11-29T12:29:05.131Z,101363.53
2022-11-29T12:30:14.325Z,101352.09
2022-11-29T12:31:48.330Z,101364.06
2022-11-29T12:33:04.054Z,101357.53
2022-11-29T12:34:26.822Z,101358.88
2022-11-29T12:35:47.508Z,101348.03
2022-11-29T12:36:58.416Z,101361.09
2022-11-29T12:38:11.552Z,101354.78
2022-11-29T12:39:37.985Z,101363.19
2022-11-29T12:40:48.489Z,101360.72
2022-11-29T12:41:57.384Z,101358.38
2022-11-29T12:43:11.142Z,101357.19
2022-11-29T12:44:25.754Z,101360.50
2022-11-29T12:45:42.019Z,101350.13
2022-11-29T12:47:13.225Z,101342.84
2022-11-29T12:48:30.271Z,101346.75
2022-11-29T12:49:44.337Z,101351.50
2022-11-29T12:51:02.966Z,101347.84
2022-11-29T12:52:16.193Z,101338.41
2022-11-29T12:53:30.204Z,101328.19
2022-11-29T12:54:49.967Z,101331.44
2022-11-29T12:56:02.438Z,101339.75
2022-11-29T12:57:11.785Z,101339.16
2022-11-29T12:58:23.152Z,101332.00
2022-11-29T12:59:39.701Z,101332.38
2022-11-29T13:00:50.561Z,101340.56
2022-11-29T13:02:05.086Z,101337.16
2022-11-29T13:03:20.026Z,101334.84
2022-11-29T13:04:32.855Z,101331.50
2022-11-29T13:05:50.791Z,101329.06
2022-11-29T13:07:00.521Z,101334.13
2022-11-29T13:08:16.918Z,101324.56
2022-11-29T13:09:38.928Z,101332.72
2022-11-29T13:10:57.417Z,101331.75
2022-11-29T13:12:06.231Z,101326.75
2022-11-29T13:13:21.658Z,101339.44
2022-11-29T13:14:42.799Z,101330.97
2022-11-29T13:15:53.926Z,101320.41
2022-11-29T13:17:00.527Z,101328.88
2022-11-29T13:18:12.355Z,101325.44
2022-11-29T13:19:23.634Z,101326.75
2022-11-29T13:20:40.283Z,101326.47
2022-11-29T13:21:52.980Z,101326.75
2022-11-29T13:23:03.137Z,101317.97
2022-11-29T13:24:12.181Z,101329.47
2022-11-29T13:25:17.560Z,101320.03
2022-11-29T13:26:23.474Z,101312.34
2022-11-29T13:27:31.521Z,101324.91
2022-11-29T13:28:35.718Z,101317.59